createdAt,value
2022-11-24T00:00:17.629Z,22.52
2022-11-24T00:00:49.420Z,30.02
2022-11-24T00:01:23.762Z,22.90
2022-11-24T00:01:55.301Z,23.55
2022-11-24T00:02:31.121Z,21.08
2022-11-24T00:03:05.822Z,19.63
2022-11-24T00:03:42.987Z,21.35
2022-11-24T00:04:14.895Z,25.80
2022-11-24T00:04:46.510Z,20.02
2022-11-24T00:05:20.452Z,22.70
2022-11-24T00:05:54.682Z,24.23
2022-11-24T00:06:27.037Z,17.85
2022-11-24T00:06:58.720Z,24.88
2022-11-24T00:07:32.583Z,18.65
2022-11-24T00:08:04.625Z,24.90
2022-11-24T00:08:43.363Z,15.85
2022-11-24T00:09:15.085Z,17.75
2022-11-24T00:09:46.777Z,21.63
2022-11-24T00:10:18.456Z,18.83
2022-11-24T00:10:50.045Z,17.25
2022-11-24T00:11:24.555Z,23.70
2022-11-24T00:11:56.129Z,23.90
2022-11-24T00:12:29.904Z,20.63
2022-11-24T00:13:01.677Z,25.67
2022-11-24T00:13:34.068Z,26.25
2022-11-24T00:14:09.845Z,24.83
2022-11-24T00:14:41.317Z,19.73
2022-11-24T00:15:12.864Z,25.87
2022-11-24T00:15:44.374Z,25.75
2022-11-24T00:16:21.825Z,17.48
2022-11-24T00:16:53.725Z,32.85
2022-11-24T00:17:25.452Z,22.55
2022-11-24T00:17:59.232Z,19.75
2022-11-24T00:18:31.265Z,22.13
2022-11-24T00:19:04.774Z,22.75
2022-11-24T00:19:36.484Z,15.25
2022-11-24T00:20:08.766Z,21.52
2022-11-24T00:20:40.502Z,24.10
2022-11-24T00:21:17.902Z,22.33
2022-11-24T00:21:52.183Z,19.63
2022-11-24T00:22:26.200Z,18.48
2022-11-24T00:22:57.767Z,23.02
2022-11-24T00:23:29.335Z,15.70
2022-11-24T00:24:06.392Z,18.00
2022-11-24T00:24:40.181Z,19.75
2022-11-24T00:25:11.741Z,18.50
2022-11-24T00:25:43.617Z,13.85
2022-11-24T00:26:18.478Z,18.20
2022-11-24T00:26:50.242Z,20.33
2022-11-24T00:27:24.324Z,16.45
2022-11-24T00:27:56.297Z,17.55
2022-11-24T00:28:27.997Z,24.05
2022-11-24T00:29:02.045Z,16.27
2022-11-24T00:29:37.834Z,17.23
2022-11-24T00:30:12.049Z,17.20
2022-11-24T00:30:44.076Z,25.40
2022-11-24T00:31:23.777Z,15.75
2022-11-24T00:31:59.553Z,17.70
2022-11-24T00:32:33.432Z,22.08
2022-11-24T00:33:05.294Z,15.15
2022-11-24T00:33:36.956Z,13.93
2022-11-24T00:34:13.471Z,24.75
2022-11-24T00:34:44.997Z,18.10
2022-11-24T00:35:18.945Z,22.90
2022-11-24T00:36:00.729Z,17.60
2022-11-24T00:36:34.791Z,16.52
2022-11-24T00:37:06.289Z,14.23
2022-11-24T00:37:40.171Z,23.87
2022-11-24T00:38:14.550Z,16.70
2022-11-24T00:38:47.007Z,18.13
2022-11-24T00:39:23.922Z,24.08
2022-11-24T00:39:57.012Z,24.90
2022-11-24T00:40:33.609Z,19.25
2022-11-24T00:41:06.930Z,16.42
2022-11-24T00:41:39.072Z,22.38
2022-11-24T00:42:14.272Z,16.75
2022-11-24T00:42:48.026Z,24.95
2022-11-24T00:43:21.936Z,16.50
2022-11-24T00:43:53.824Z,12.25
2022-11-24T00:44:25.322Z,20.92
2022-11-24T00:44:56.785Z,18.40
2022-11-24T00:45:30.727Z,29.92
2022-11-24T00:46:02.373Z,19.27
2022-11-24T00:46:34.297Z,19.77
2022-11-24T00:47:06.656Z,17.00
2022-11-24T00:47:38.416Z,22.15
2022-11-24T00:48:13.085Z,19.23
2022-11-24T00:48:47.312Z,18.20
2022-11-24T00:49:19.104Z,18.92
2022-11-24T00:49:53.062Z,20.33
2022-11-24T00:50:24.747Z,26.83
2022-11-24T00:51:11.501Z,17.75
2022-11-24T00:51:47.217Z,18.55
2022-11-24T00:52:18.780Z,16.45
2022-11-24T00:52:50.467Z,22.75
2022-11-24T00:53:22.075Z,20.02
2022-11-24T00:53:54.473Z,20.88
2022-11-24T00:54:26.202Z,15.10
2022-11-24T00:54:57.824Z,17.52
2022-11-24T00:55:30.877Z,14.65
2022-11-24T00:56:05.897Z,11.02
2022-11-24T00:56:37.680Z,23.05
2022-11-24T00:57:13.640Z,24.42
2022-11-24T00:57:48.461Z,15.00
2022-11-24T00:58:20.561Z,17.70
2022-11-24T00:58:55.783Z,20.75
2022-11-24T00:59:29.843Z,20.02
2022-11-24T01:00:01.353Z,22.73
2022-11-24T01:00:32.828Z,20.38
2022-11-24T01:01:11.033Z,15.38
2022-11-24T01:01:45.496Z,17.05
2022-11-24T01:02:20.251Z,15.27
2022-11-24T01:02:55.683Z,16.80
2022-11-24T01:03:29.728Z,18.17
2022-11-24T01:04:02.030Z,24.25
2022-11-24T01:04:34.198Z,20.30
2022-11-24T01:05:15.358Z,18.15
2022-11-24T01:05:46.998Z,18.27
2022-11-24T01:06:22.062Z,21.75
2022-11-24T01:06:56.261Z,19.95
2022-11-24T01:07:27.950Z,19.83
2022-11-24T01:07:59.775Z,16.08
2022-11-24T01:08:33.207Z,14.98
2022-11-24T01:09:04.940Z,24.02
2022-11-24T01:09:43.258Z,25.75
2022-11-24T01:10:16.177Z,17.27
2022-11-24T01:10:47.791Z,19.27
2022-11-24T01:11:22.951Z,21.00
2022-11-24T01:12:04.148Z,23.83
2022-11-24T01:12:40.516Z,18.00
2022-11-24T01:13:13.465Z,20.65
2022-11-24T01:13:50.223Z,23.05
2022-11-24T01:14:23.799Z,23.48
2022-11-24T01:14:55.455Z,20.77
2022-11-24T01:15:30.008Z,13.48
2022-11-24T01:16:01.699Z,25.58
2022-11-24T01:16:38.727Z,16.38
2022-11-24T01:17:14.892Z,20.30
2022-11-24T01:17:50.415Z,16.52
2022-11-24T01:18:22.145Z,18.48
2022-11-24T01:18:58.441Z,20.05
2022-11-24T01:19:30.394Z,20.75
2022-11-24T01:20:05.198Z,16.10
2022-11-24T01:20:37.601Z,17.35
2022-11-24T01:21:13.895Z,20.83
2022-11-24T01:21:48.407Z,19.23
2022-11-24T01:22:24.861Z,14.57
2022-11-24T01:22:59.196Z,18.37
2022-11-24T01:23:30.886Z,18.88
2022-11-24T01:24:05.673Z,16.45
2022-11-24T01:24:40.464Z,24.10
2022-11-24T01:25:12.237Z,24.20
2022-11-24T01:25:43.965Z,17.73
2022-11-24T01:26:21.636Z,19.85
2022-11-24T01:26:53.435Z,24.48
2022-11-24T01:27:27.448Z,18.90
2022-11-24T01:28:01.429Z,16.55
2022-11-24T01:28:33.422Z,17.90
2022-11-24T01:29:05.523Z,20.75
2022-11-24T01:29:42.568Z,17.98
2022-11-24T01:30:14.380Z,21.55
2022-11-24T01:30:57.488Z,21.05
2022-11-24T01:31:29.327Z,13.65
2022-11-24T01:32:01.141Z,20.10
2022-11-24T01:32:33.868Z,17.98
2022-11-24T01:33:05.528Z,13.25
2022-11-24T01:33:40.332Z,17.48
2022-11-24T01:34:14.299Z,17.07
2022-11-24T01:34:45.854Z,15.55
2022-11-24T01:35:17.574Z,20.33
2022-11-24T01:35:49.186Z,19.13
2022-11-24T01:36:23.286Z,17.70
2022-11-24T01:36:54.916Z,18.65
2022-11-24T01:37:28.704Z,19.05
2022-11-24T01:38:00.372Z,19.13
2022-11-24T01:38:34.599Z,14.63
2022-11-24T01:39:08.659Z,19.77
2022-11-24T01:39:42.808Z,22.80
2022-11-24T01:40:14.520Z,16.40
2022-11-24T01:40:48.842Z,13.23
2022-11-24T01:41:25.882Z,14.43
2022-11-24T01:42:01.697Z,17.50
2022-11-24T01:42:52.536Z,21.63
2022-11-24T01:44:30.462Z,16.65
2022-11-24T01:45:26.935Z,14.77
2022-11-24T01:46:06.224Z,15.25
2022-11-24T01:46:47.206Z,15.27
2022-11-24T01:47:34.106Z,19.15
2022-11-24T01:48:11.184Z,15.88
2022-11-24T01:49:07.594Z,15.90
2022-11-24T01:49:46.943Z,16.48
2022-11-24T01:50:18.478Z,17.92
2022-11-24T01:50:55.529Z,17.77
2022-11-24T01:51:29.706Z,12.27
2022-11-24T01:52:23.913Z,11.57
2022-11-24T01:52:56.580Z,13.63
2022-11-24T01:53:28.299Z,21.90
2022-11-24T01:54:11.306Z,21.27
2022-11-24T01:54:48.593Z,18.85
2022-11-24T01:55:23.976Z,21.50
2022-11-24T01:55:55.696Z,15.70
2022-11-24T01:56:28.577Z,14.77
2022-11-24T01:57:16.578Z,18.90
2022-11-24T01:57:58.904Z,18.02
2022-11-24T01:58:34.639Z,22.77
2022-11-24T01:59:10.719Z,12.63
2022-11-24T01:59:43.550Z,16.70
2022-11-24T02:00:19.293Z,19.38
2022-11-24T02:00:52.100Z,18.88
2022-11-24T02:01:24.847Z,22.77
2022-11-24T02:01:57.143Z,16.77
2022-11-24T02:02:30.103Z,15.60
2022-11-24T02:03:02.313Z,14.90
2022-11-24T02:03:36.755Z,21.30
2022-11-24T02:04:13.553Z,16.75
2022-11-24T02:04:46.836Z,12.48
2022-11-24T02:05:28.323Z,15.67
2022-11-24T02:06:11.372Z,19.40
2022-11-24T02:06:45.576Z,18.25
2022-11-24T02:07:18.142Z,14.57
2022-11-24T02:07:51.227Z,16.88
2022-11-24T02:08:39.156Z,15.48
2022-11-24T02:09:19.693Z,18.52
2022-11-24T02:10:04.865Z,12.98
2022-11-24T02:10:37.551Z,15.85
2022-11-24T02:11:09.708Z,14.35
2022-11-24T02:11:45.979Z,15.57
2022-11-24T02:12:17.584Z,21.60
2022-11-24T02:12:52.119Z,21.10
2022-11-24T02:13:26.385Z,20.33
2022-11-24T02:14:01.408Z,22.65
2022-11-24T02:14:38.133Z,10.30
2022-11-24T02:15:11.045Z,19.67
2022-11-24T02:15:42.985Z,17.90
2022-11-24T02:16:14.885Z,16.30
2022-11-24T02:16:50.267Z,16.48
2022-11-24T02:17:22.585Z,16.83
2022-11-24T02:17:54.066Z,16.23
2022-11-24T02:18:25.558Z,15.93
2022-11-24T02:18:57.469Z,20.55
2022-11-24T02:19:44.280Z,14.48
2022-11-24T02:20:19.426Z,17.67
2022-11-24T02:20:53.563Z,18.55
2022-11-24T02:21:25.299Z,14.40
2022-11-24T02:22:00.374Z,13.93
2022-11-24T02:22:44.114Z,15.20
2022-11-24T02:23:30.669Z,13.57
2022-11-24T02:24:08.323Z,11.05
2022-11-24T02:24:48.434Z,14.07
2022-11-24T02:25:25.715Z,21.10
2022-11-24T02:26:26.639Z,15.30
2022-11-24T02:26:58.035Z,15.77
2022-11-24T02:27:30.550Z,12.07
2022-11-24T02:28:06.127Z,13.57
2022-11-24T02:28:38.163Z,19.75
2022-11-24T02:29:11.625Z,17.60
2022-11-24T02:29:43.508Z,13.50
2022-11-24T02:30:15.074Z,15.32
2022-11-24T02:30:46.942Z,15.10
2022-11-24T02:31:18.849Z,13.30
2022-11-24T02:32:00.478Z,16.45
2022-11-24T02:32:38.477Z,11.15
2022-11-24T02:33:12.217Z,17.67
2022-11-24T02:33:44.162Z,18.63
2022-11-24T02:34:21.437Z,16.73
2022-11-24T02:35:03.991Z,11.73
2022-11-24T02:35:37.876Z,10.73
2022-11-24T02:36:09.570Z,16.08
2022-11-24T02:36:41.304Z,13.43
2022-11-24T02:37:12.944Z,15.20
2022-11-24T02:37:49.711Z,10.68
2022-11-24T02:38:35.406Z,17.42
2022-11-24T02:39:12.424Z,9.85
2022-11-24T02:39:46.632Z,10.23
2022-11-24T02:40:25.664Z,16.60
2022-11-24T02:41:00.053Z,12.57
2022-11-24T02:41:31.746Z,17.00
2022-11-24T02:42:08.159Z,17.67
2022-11-24T02:42:44.927Z,13.90
2022-11-24T02:43:20.827Z,19.75
2022-11-24T02:43:56.200Z,8.57
2022-11-24T02:44:33.081Z,13.30
2022-11-24T02:45:05.628Z,18.98
2022-11-24T02:45:37.309Z,12.00
2022-11-24T02:46:10.803Z,15.23
2022-11-24T02:46:43.762Z,17.33
2022-11-24T02:47:15.241Z,15.87
2022-11-24T02:47:46.895Z,16.50
2022-11-24T02:48:20.773Z,18.08
2022-11-24T02:48:55.033Z,15.60
2022-11-24T02:49:26.794Z,14.85
2022-11-24T02:49:58.262Z,15.63
2022-11-24T02:50:30.154Z,11.35
2022-11-24T02:51:01.831Z,13.77
2022-11-24T02:51:34.411Z,15.48
2022-11-24T02:52:09.115Z,12.40
2022-11-24T02:52:41.084Z,9.47
2022-11-24T02:53:12.580Z,16.95
2022-11-24T02:53:44.372Z,11.20
2022-11-24T02:54:18.067Z,13.05
2022-11-24T02:54:49.645Z,14.00
2022-11-24T02:55:21.407Z,22.95
2022-11-24T02:55:53.340Z,12.88
2022-11-24T02:56:26.075Z,12.90
2022-11-24T02:56:57.915Z,22.05
2022-11-24T02:57:32.063Z,11.55
2022-11-24T02:58:03.850Z,16.27
2022-11-24T02:58:40.637Z,10.98
2022-11-24T02:59:16.566Z,10.38
2022-11-24T02:59:51.168Z,13.10
2022-11-24T03:00:23.396Z,10.60
2022-11-24T03:00:55.317Z,14.25
2022-11-24T03:01:32.744Z,12.30
2022-11-24T03:02:07.572Z,11.35
2022-11-24T03:02:44.845Z,12.32
2022-11-24T03:03:19.152Z,13.20
2022-11-24T03:03:53.686Z,14.53
2022-11-24T03:04:25.486Z,14.32
2022-11-24T03:05:03.629Z,12.07
2022-11-24T03:05:35.304Z,11.55
2022-11-24T03:06:08.298Z,16.27
2022-11-24T03:06:43.628Z,9.70
2022-11-24T03:07:15.322Z,10.13
2022-11-24T03:07:47.265Z,9.48
2022-11-24T03:08:21.345Z,17.15
2022-11-24T03:08:53.189Z,10.23
2022-11-24T03:09:33.238Z,18.07
2022-11-24T03:10:07.425Z,14.95
2022-11-24T03:10:41.750Z,11.50
2022-11-24T03:11:15.601Z,17.00
2022-11-24T03:11:47.232Z,15.95
2022-11-24T03:12:23.933Z,13.50
2022-11-24T03:13:01.304Z,10.80
2022-11-24T03:13:33.347Z,16.77
2022-11-24T03:14:08.048Z,14.10
2022-11-24T03:14:45.542Z,11.68
2022-11-24T03:15:22.256Z,12.27
2022-11-24T03:15:58.162Z,15.93
2022-11-24T03:16:30.100Z,15.55
2022-11-24T03:17:06.998Z,10.98
2022-11-24T03:17:41.197Z,19.23
2022-11-24T03:18:15.116Z,12.02
2022-11-24T03:18:59.608Z,18.60
2022-11-24T03:19:31.501Z,12.25
2022-11-24T03:20:07.160Z,13.57
2022-11-24T03:20:43.533Z,15.43
2022-11-24T03:21:15.263Z,15.57
2022-11-24T03:21:47.005Z,18.60
2022-11-24T03:22:24.659Z,13.25
2022-11-24T03:22:56.775Z,12.48
2022-11-24T03:23:30.995Z,17.75
2022-11-24T03:24:07.096Z,13.48
2022-11-24T03:24:42.249Z,10.00
2022-11-24T03:25:18.628Z,15.15
2022-11-24T03:25:58.348Z,9.15
2022-11-24T03:26:36.526Z,11.65
2022-11-24T03:27:08.551Z,17.00
2022-11-24T03:27:42.383Z,13.13
2022-11-24T03:28:16.521Z,12.00
2022-11-24T03:28:48.453Z,15.35
2022-11-24T03:29:20.032Z,10.23
2022-11-24T03:29:57.048Z,10.90
2022-11-24T03:30:28.627Z,13.50
2022-11-24T03:31:03.158Z,12.10
2022-11-24T03:31:37.173Z,13.95
2022-11-24T03:32:11.443Z,15.77
2022-11-24T03:32:44.687Z,9.73
2022-11-24T03:33:18.893Z,10.52
2022-11-24T03:33:52.288Z,9.32
2022-11-24T03:34:24.099Z,17.17
2022-11-24T03:34:58.296Z,13.25
2022-11-24T03:35:30.043Z,13.80
2022-11-24T03:36:04.237Z,15.18
2022-11-24T03:36:40.490Z,11.38
2022-11-24T03:37:14.224Z,14.95
2022-11-24T03:37:47.757Z,17.90
2022-11-24T03:38:19.450Z,9.53
2022-11-24T03:38:51.143Z,13.68
2022-11-24T03:39:27.396Z,10.48
2022-11-24T03:40:05.842Z,10.05
2022-11-24T03:40:37.596Z,19.13
2022-11-24T03:41:12.425Z,10.23
2022-11-24T03:41:48.571Z,10.73
2022-11-24T03:42:30.852Z,9.05
2022-11-24T03:43:12.678Z,12.85
2022-11-24T03:43:44.597Z,17.15
2022-11-24T03:44:17.802Z,15.27
2022-11-24T03:45:04.201Z,14.38
2022-11-24T03:45:51.369Z,11.35
2022-11-24T03:46:29.404Z,15.63
2022-11-24T03:47:07.093Z,15.05
2022-11-24T03:47:44.392Z,8.65
2022-11-24T03:48:24.132Z,13.75
2022-11-24T03:48:58.078Z,10.02
2022-11-24T03:49:43.496Z,18.50
2022-11-24T03:50:15.187Z,15.80
2022-11-24T03:50:56.735Z,16.43
2022-11-24T03:51:28.576Z,17.40
2022-11-24T03:52:08.149Z,12.23
2022-11-24T03:52:40.181Z,16.15
2022-11-24T03:53:16.688Z,10.50
2022-11-24T03:53:48.436Z,14.85
2022-11-24T03:54:23.785Z,13.98
2022-11-24T03:54:55.646Z,9.18
2022-11-24T03:55:27.304Z,16.45
2022-11-24T03:55:59.668Z,20.83
2022-11-24T03:56:31.442Z,13.13
2022-11-24T03:57:07.658Z,14.70
2022-11-24T03:57:42.288Z,16.02
2022-11-24T03:58:19.619Z,10.00
2022-11-24T03:58:51.829Z,13.23
2022-11-24T03:59:23.452Z,14.05
2022-11-24T04:00:00.673Z,9.82
2022-11-24T04:00:34.820Z,13.48
2022-11-24T04:01:09.711Z,8.80
2022-11-24T04:01:41.535Z,12.20
2022-11-24T04:02:21.881Z,11.50
2022-11-24T04:02:54.375Z,9.38
2022-11-24T04:03:26.950Z,13.63
2022-11-24T04:04:11.410Z,12.90
2022-11-24T04:04:48.439Z,14.82
2022-11-24T04:05:23.557Z,10.35
2022-11-24T04:05:57.629Z,16.40
2022-11-24T04:06:38.965Z,12.90
2022-11-24T04:07:10.677Z,9.10
2022-11-24T04:07:42.291Z,15.68
2022-11-24T04:08:19.915Z,10.23
2022-11-24T04:08:53.652Z,13.13
2022-11-24T04:09:26.884Z,11.52
2022-11-24T04:10:03.616Z,14.95
2022-11-24T04:10:42.242Z,14.60
2022-11-24T04:11:35.351Z,13.57
2022-11-24T04:12:25.919Z,14.02
2022-11-24T04:12:57.851Z,20.55
2022-11-24T04:13:29.426Z,18.48
2022-11-24T04:14:02.870Z,12.70
2022-11-24T04:14:34.931Z,12.27
2022-11-24T04:15:06.972Z,16.30
2022-11-24T04:15:40.618Z,12.43
2022-11-24T04:16:14.963Z,14.30
2022-11-24T04:16:52.309Z,17.02
2022-11-24T04:17:26.404Z,9.43
2022-11-24T04:18:04.099Z,11.05
2022-11-24T04:18:41.805Z,10.80
2022-11-24T04:19:23.147Z,15.63
2022-11-24T04:19:54.787Z,17.35
2022-11-24T04:20:32.226Z,14.60
2022-11-24T04:21:03.995Z,15.50
2022-11-24T04:21:41.601Z,15.15
2022-11-24T04:22:16.334Z,10.35
2022-11-24T04:22:53.052Z,10.63
2022-11-24T04:23:24.796Z,18.23
2022-11-24T04:23:59.092Z,14.98
2022-11-24T04:24:31.151Z,17.48
2022-11-24T04:25:08.656Z,19.00
2022-11-24T04:25:43.416Z,9.02
2022-11-24T04:26:15.747Z,15.43
2022-11-24T04:26:55.672Z,9.38
2022-11-24T04:27:29.450Z,11.88
2022-11-24T04:28:04.928Z,14.07
2022-11-24T04:28:37.021Z,13.77
2022-11-24T04:29:12.439Z,11.18
2022-11-24T04:29:55.128Z,12.98
2022-11-24T04:30:32.324Z,10.73
2022-11-24T04:31:07.966Z,16.45
2022-11-24T04:31:39.643Z,12.68
2022-11-24T04:32:11.434Z,8.43
2022-11-24T04:32:48.035Z,8.88
2022-11-24T04:33:22.277Z,11.55
2022-11-24T04:33:54.200Z,11.38
2022-11-24T04:34:28.522Z,17.17
2022-11-24T04:35:01.605Z,13.63
2022-11-24T04:35:37.389Z,13.38
2022-11-24T04:36:09.083Z,11.43
2022-11-24T04:36:40.945Z,14.32
2022-11-24T04:37:12.777Z,12.75
2022-11-24T04:37:47.567Z,13.23
2022-11-24T04:39:20.030Z,9.43
2022-11-24T04:39:24.086Z,13.00
2022-11-24T04:39:59.472Z,14.32
2022-11-24T04:40:31.204Z,11.80
2022-11-24T04:41:05.740Z,18.80
2022-11-24T04:41:42.471Z,11.70
2022-11-24T04:42:19.365Z,12.10
2022-11-24T04:42:55.342Z,7.95
2022-11-24T04:43:37.697Z,11.52
2022-11-24T04:44:13.146Z,13.67
2022-11-24T04:44:51.246Z,11.32
2022-11-24T04:45:29.536Z,14.48
2022-11-24T04:46:03.831Z,17.27
2022-11-24T04:46:39.850Z,16.35
2022-11-24T04:47:20.571Z,9.00
2022-11-24T04:47:54.643Z,10.40
2022-11-24T04:48:28.363Z,12.82
2022-11-24T04:49:05.792Z,9.98
2022-11-24T04:49:41.564Z,7.53
2022-11-24T04:50:17.311Z,15.73
2022-11-24T04:50:48.806Z,16.23
2022-11-24T04:51:30.366Z,11.30
2022-11-24T04:52:14.643Z,19.48
2022-11-24T04:52:56.622Z,13.48
2022-11-24T04:53:30.592Z,12.20
2022-11-24T04:54:09.100Z,9.55
2022-11-24T04:54:56.386Z,13.65
2022-11-24T04:55:33.557Z,14.75
2022-11-24T04:56:08.399Z,12.52
2022-11-24T04:56:47.089Z,10.20
2022-11-24T04:57:25.299Z,10.32
2022-11-24T04:57:56.738Z,10.68
2022-11-24T04:58:31.303Z,9.85
2022-11-24T04:59:08.815Z,17.30
2022-11-24T04:59:40.242Z,13.05
2022-11-24T05:00:21.552Z,9.90
2022-11-24T05:00:53.053Z,12.80
2022-11-24T05:01:24.871Z,8.27
2022-11-24T05:01:59.791Z,14.32
2022-11-24T05:02:31.260Z,14.83
2022-11-24T05:03:05.521Z,8.35
2022-11-24T05:03:44.540Z,10.80
2022-11-24T05:04:23.406Z,13.23
2022-11-24T05:05:02.115Z,13.27
2022-11-24T05:05:38.008Z,11.20
2022-11-24T05:06:15.010Z,13.13
2022-11-24T05:06:49.320Z,10.15
2022-11-24T05:07:22.373Z,11.68
2022-11-24T05:07:56.260Z,9.95
2022-11-24T05:08:33.628Z,14.17
2022-11-24T05:09:09.059Z,9.50
2022-11-24T05:10:03.784Z,9.45
2022-11-24T05:10:35.339Z,14.02
2022-11-24T05:11:15.246Z,7.78
2022-11-24T05:11:56.370Z,7.70
2022-11-24T05:12:33.828Z,9.82
2022-11-24T05:13:14.847Z,7.68
2022-11-24T05:13:52.272Z,10.50
2022-11-24T05:14:30.383Z,13.23
2022-11-24T05:15:13.820Z,10.03
2022-11-24T05:15:54.183Z,10.07
2022-11-24T05:16:31.256Z,7.63
2022-11-24T05:17:02.885Z,5.07
2022-11-24T05:17:39.955Z,9.23
2022-11-24T05:18:13.968Z,7.38
2022-11-24T05:18:46.043Z,6.55
2022-11-24T05:19:29.863Z,12.85
2022-11-24T05:20:06.235Z,13.25
2022-11-24T05:20:46.902Z,7.55
2022-11-24T05:21:23.898Z,8.57
2022-11-24T05:21:59.888Z,8.23
2022-11-24T05:22:37.284Z,11.77
2022-11-24T05:23:11.991Z,9.07
2022-11-24T05:23:47.615Z,9.00
2022-11-24T05:24:19.076Z,10.52
2022-11-24T05:24:55.612Z,9.00
2022-11-24T05:25:29.670Z,8.30
2022-11-24T05:26:04.840Z,7.30
2022-11-24T05:26:41.392Z,6.00
2022-11-24T05:27:18.762Z,7.15
2022-11-24T05:27:52.839Z,7.22
2022-11-24T05:28:40.418Z,8.60
2022-11-24T05:29:12.170Z,10.40
2022-11-24T05:29:50.161Z,11.57
2022-11-24T05:30:27.040Z,6.15
2022-11-24T05:31:10.056Z,6.35
2022-11-24T05:31:43.999Z,5.97
2022-11-24T05:32:20.981Z,5.75
2022-11-24T05:32:58.122Z,5.97
2022-11-24T05:33:36.111Z,6.03
2022-11-24T05:34:11.198Z,5.15
2022-11-24T05:34:52.118Z,5.53
2022-11-24T05:35:26.548Z,4.95
2022-11-24T05:36:12.466Z,5.20
2022-11-24T05:36:58.401Z,3.45
2022-11-24T05:37:31.560Z,3.78
2022-11-24T05:38:04.863Z,4.32
2022-11-24T05:38:41.268Z,3.60
2022-11-24T05:39:15.484Z,6.10
2022-11-24T05:40:00.460Z,4.90
2022-11-24T05:40:42.570Z,7.38
2022-11-24T05:41:26.031Z,3.95
2022-11-24T05:41:57.673Z,3.20
2022-11-24T05:42:48.419Z,5.80
2022-11-24T05:43:22.699Z,2.83
2022-11-24T05:43:56.776Z,3.38
2022-11-24T05:44:34.068Z,4.38
2022-11-24T05:45:18.289Z,3.17
2022-11-24T05:45:58.788Z,4.00
2022-11-24T05:46:45.536Z,2.67
2022-11-24T05:47:23.480Z,5.30
2022-11-24T05:48:05.434Z,4.72
2022-11-24T05:48:49.631Z,6.13
2022-11-24T05:49:21.032Z,4.43
2022-11-24T05:49:52.548Z,4.05
2022-11-24T05:50:26.472Z,3.88
2022-11-24T05:50:58.570Z,4.32
2022-11-24T05:51:39.094Z,4.60
2022-11-24T05:52:10.867Z,3.45
2022-11-24T05:52:50.307Z,4.90
2022-11-24T05:53:32.257Z,3.63
2022-11-24T05:54:09.906Z,4.25
2022-11-24T05:54:57.043Z,4.32
2022-11-24T05:55:33.446Z,5.72
2022-11-24T05:56:10.666Z,7.75
2022-11-24T05:56:48.659Z,3.38
2022-11-24T05:57:27.439Z,4.47
2022-11-24T05:58:04.224Z,4.05
2022-11-24T05:58:46.668Z,1.80
2022-11-24T05:59:24.954Z,3.30
2022-11-24T06:00:10.849Z,4.47
2022-11-24T06:01:02.913Z,3.20
2022-11-24T06:02:27.086Z,1.98
2022-11-24T06:02:54.212Z,3.65
2022-11-24T06:03:30.264Z,1.42
2022-11-24T06:04:04.854Z,2.33
2022-11-24T06:04:42.052Z,5.20
2022-11-24T06:05:19.645Z,4.35
2022-11-24T06:05:56.876Z,3.30
2022-11-24T06:06:33.192Z,2.43
2022-11-24T06:07:09.896Z,2.35
2022-11-24T06:07:47.083Z,4.35
2022-11-24T06:08:30.882Z,2.30
2022-11-24T06:09:08.383Z,2.97
2022-11-24T06:09:44.279Z,2.92
2022-11-24T06:10:22.031Z,3.95
2022-11-24T06:11:17.959Z,3.03
2022-11-24T06:11:56.159Z,2.15
2022-11-24T06:12:27.662Z,1.80
2022-11-24T06:13:22.334Z,3.83
2022-11-24T06:14:11.330Z,2.83
2022-11-24T06:15:09.930Z,5.00
2022-11-24T06:16:09.032Z,3.55
2022-11-24T06:16:52.533Z,4.65
2022-11-24T06:17:33.127Z,5.80
2022-11-24T06:18:17.459Z,2.00
2022-11-24T06:19:12.305Z,3.92
2022-11-24T06:19:50.189Z,4.03
2022-11-24T06:20:32.628Z,3.30
2022-11-24T06:21:11.307Z,3.00
2022-11-24T06:21:48.508Z,2.88
2022-11-24T06:22:23.018Z,4.88
2022-11-24T06:23:00.357Z,3.80
2022-11-24T06:23:44.368Z,2.22
2022-11-24T06:24:35.967Z,5.47
2022-11-24T06:27:44.432Z,3.53
2022-11-24T06:28:34.323Z,2.83
2022-11-24T06:29:16.124Z,4.50
2022-11-24T06:29:54.337Z,5.13
2022-11-24T06:30:37.316Z,3.47
2022-11-24T06:31:14.782Z,4.43
2022-11-24T06:32:13.559Z,2.80
2022-11-24T06:32:51.424Z,5.13
2022-11-24T06:33:35.389Z,3.72
2022-11-24T06:35:30.044Z,5.72
2022-11-24T06:36:21.335Z,4.82
2022-11-24T06:37:02.447Z,4.07
2022-11-24T06:37:45.329Z,4.40
2022-11-24T06:38:24.377Z,1.95
2022-11-24T06:39:17.852Z,4.40
2022-11-24T06:39:59.793Z,4.03
2022-11-24T06:41:00.219Z,4.88
2022-11-24T06:41:41.075Z,4.78
2022-11-24T06:42:41.099Z,3.42
2022-11-24T06:43:22.741Z,3.33
2022-11-24T06:44:11.226Z,3.75
2022-11-24T06:44:52.317Z,3.27
2022-11-24T06:45:33.561Z,4.03
2022-11-24T06:46:17.095Z,4.70
2022-11-24T06:46:59.845Z,5.75
2022-11-24T06:47:42.052Z,5.90
2022-11-24T06:48:39.907Z,4.57
2022-11-24T06:49:28.591Z,4.18
2022-11-24T06:50:15.790Z,5.95
2022-11-24T06:50:52.280Z,3.85
2022-11-24T06:51:31.980Z,5.78
2022-11-24T06:52:27.532Z,5.83
2022-11-24T06:53:11.099Z,2.65
2022-11-24T06:53:45.781Z,5.20
2022-11-24T06:54:43.274Z,6.45
2022-11-24T06:56:25.156Z,3.80
2022-11-24T06:57:08.673Z,3.50
2022-11-24T06:57:51.656Z,3.72
2022-11-24T06:58:32.157Z,4.45
2022-11-24T06:59:07.201Z,6.35
2022-11-24T06:59:41.242Z,5.03
2022-11-24T07:00:19.040Z,4.95
2022-11-24T07:00:56.219Z,5.45
2022-11-24T07:01:29.419Z,3.60
2022-11-24T07:02:01.333Z,7.28
2022-11-24T07:02:35.226Z,5.30
2022-11-24T07:03:14.660Z,7.00
2022-11-24T07:03:54.715Z,4.88
2022-11-24T07:04:26.152Z,8.85
2022-11-24T07:04:57.637Z,4.90
2022-11-24T07:05:29.153Z,3.83
2022-11-24T07:06:00.700Z,7.30
2022-11-24T07:06:32.166Z,5.53
2022-11-24T07:07:05.103Z,6.57
2022-11-24T07:07:36.793Z,5.70
2022-11-24T07:08:19.215Z,8.48
2022-11-24T07:09:07.435Z,5.53
2022-11-24T07:09:38.997Z,6.32
2022-11-24T07:10:27.498Z,5.18
2022-11-24T07:11:27.434Z,5.93
2022-11-24T07:12:20.149Z,6.40
2022-11-24T07:12:57.885Z,9.60
2022-11-24T07:13:36.698Z,4.55
2022-11-24T07:14:20.491Z,5.38
2022-11-24T07:14:56.939Z,6.78
2022-11-24T07:15:28.816Z,6.22
2022-11-24T07:16:09.672Z,6.43
2022-11-24T07:16:41.236Z,5.43
2022-11-24T07:17:12.960Z,6.78
2022-11-24T07:17:44.509Z,5.75
2022-11-24T07:18:21.838Z,6.40
2022-11-24T07:19:04.644Z,7.13
2022-11-24T07:19:42.053Z,5.70
2022-11-24T07:20:26.827Z,5.75
2022-11-24T07:21:07.343Z,8.05
2022-11-24T07:21:42.049Z,8.75
2022-11-24T07:22:17.641Z,7.07
2022-11-24T07:22:58.702Z,6.43
2022-11-24T07:23:40.334Z,9.23
2022-11-24T07:24:14.120Z,5.55
2022-11-24T07:24:51.808Z,9.50
2022-11-24T07:25:29.079Z,8.98
2022-11-24T07:26:06.929Z,7.88
2022-11-24T07:26:40.123Z,6.68
2022-11-24T07:27:11.644Z,6.47
2022-11-24T07:27:45.771Z,7.53
2022-11-24T07:28:17.257Z,7.07
2022-11-24T07:28:49.312Z,9.90
2022-11-24T07:29:20.924Z,8.80
2022-11-24T07:29:55.891Z,10.23
2022-11-24T07:30:28.416Z,10.60
2022-11-24T07:31:05.413Z,8.93
2022-11-24T07:31:36.912Z,10.50
2022-11-24T07:32:08.658Z,8.70
2022-11-24T07:32:40.276Z,8.40
2022-11-24T07:33:20.666Z,10.35
2022-11-24T07:33:53.690Z,9.55
2022-11-24T07:34:25.399Z,9.90
2022-11-24T07:34:56.890Z,8.13
2022-11-24T07:35:30.823Z,9.95
2022-11-24T07:36:03.604Z,7.63
2022-11-24T07:36:37.023Z,11.05
2022-11-24T07:37:11.205Z,10.15
2022-11-24T07:37:42.827Z,11.70
2022-11-24T07:38:17.176Z,11.27
2022-11-24T07:38:49.069Z,9.50
2022-11-24T07:39:20.620Z,11.30
2022-11-24T07:39:53.819Z,10.32
2022-11-24T07:40:27.132Z,10.82
2022-11-24T07:41:09.916Z,9.43
2022-11-24T07:41:41.635Z,13.53
2022-11-24T07:42:23.045Z,8.73
2022-11-24T07:43:01.371Z,13.02
2022-11-24T07:43:39.169Z,11.35
2022-11-24T07:44:13.508Z,8.30
2022-11-24T07:44:48.008Z,11.20
2022-11-24T07:45:19.929Z,7.60
2022-11-24T07:45:52.897Z,7.93
2022-11-24T07:46:24.688Z,10.25
2022-11-24T07:46:56.117Z,10.68
2022-11-24T07:47:27.718Z,9.80
2022-11-24T07:48:01.980Z,10.85
2022-11-24T07:48:34.432Z,8.80
2022-11-24T07:49:05.974Z,10.40
2022-11-24T07:49:37.537Z,13.27
2022-11-24T07:50:10.453Z,11.90
2022-11-24T07:50:41.810Z,14.38
2022-11-24T07:51:13.380Z,12.52
2022-11-24T07:51:45.257Z,9.18
2022-11-24T07:52:16.798Z,11.75
2022-11-24T07:52:48.343Z,10.50
2022-11-24T07:53:19.975Z,13.25
2022-11-24T07:53:51.540Z,14.55
2022-11-24T07:54:22.928Z,9.95
2022-11-24T07:54:54.321Z,9.55
2022-11-24T07:55:25.753Z,8.77
2022-11-24T07:56:00.285Z,12.07
2022-11-24T07:56:31.646Z,8.57
2022-11-24T07:57:03.030Z,11.90